Providence, Pennsylvania
Current Conditions -  °F | °C
As of 7:49 AM on Monday 24 Nov 2014 (Local Time) from KLNS Reporting Station
Scattered Clouds Scattered Clouds  
Wind Chill: 17°   Ceiling: Unl
Heat Index: 17°   Visibility: 10mi
Dew Point: 14°   Wind: 16mph
Humidity: 82%   Direction: 190°S
Pressure: 29.63"   Gusts: NA
Location:  39.9111°N, 76.2285°W
Report Text: KLNS 241249Z 19014KT 10SM SCT014 SCT021 17/14 A2963 RMK AO2
Loading
Personal Weather Stations






























Interactive Weather Map New forecast layout! Learn more

10-Day Weather Forecast

Advertisements
Track Severe Weather on mobile